createdAt,value
2019-03-10T00:01:11.935Z,3.85
2019-03-10T00:03:39.447Z,4.57
2019-03-10T00:06:06.822Z,3.37
2019-03-10T00:08:34.370Z,3.62
2019-03-10T00:11:01.770Z,5.47
2019-03-10T00:13:29.195Z,3.42
2019-03-10T00:15:56.630Z,4.68
2019-03-10T00:18:24.040Z,4.65
2019-03-10T00:20:51.440Z,5.40
2019-03-10T00:23:18.978Z,4.37
2019-03-10T00:25:46.438Z,3.60
2019-03-10T00:28:13.836Z,4.05
2019-03-10T00:30:41.234Z,4.28
2019-03-10T00:33:08.656Z,3.62
2019-03-10T00:35:36.059Z,3.55
2019-03-10T00:38:03.508Z,4.37
2019-03-10T00:40:37.346Z,3.12
2019-03-10T00:43:16.733Z,3.80
2019-03-10T00:45:50.992Z,2.90
2019-03-10T00:48:20.406Z,3.87
2019-03-10T00:50:59.704Z,3.47
2019-03-10T00:53:27.117Z,3.40
2019-03-10T00:55:54.529Z,2.97
2019-03-10T00:58:21.924Z,4.37
2019-03-10T01:00:49.331Z,3.30
2019-03-10T01:03:16.772Z,3.28
2019-03-10T01:05:44.179Z,2.80
2019-03-10T01:08:11.624Z,2.70
2019-03-10T01:10:39.347Z,3.40
2019-03-10T01:13:06.763Z,2.92
2019-03-10T01:15:34.153Z,2.65
2019-03-10T01:18:01.638Z,3.45
2019-03-10T01:20:29.026Z,2.67
2019-03-10T01:22:56.591Z,2.47
2019-03-10T01:25:23.990Z,3.40
2019-03-10T01:27:51.395Z,3.30
2019-03-10T01:30:18.853Z,2.47
2019-03-10T01:32:58.793Z,2.00
2019-03-10T01:35:26.214Z,1.45
2019-03-10T01:37:53.640Z,1.67
2019-03-10T01:40:21.035Z,2.05
2019-03-10T01:42:48.451Z,1.08
2019-03-10T01:45:15.889Z,1.05
2019-03-10T01:47:43.276Z,0.93
2019-03-10T01:50:10.684Z,0.73
2019-03-10T01:52:38.094Z,0.93
2019-03-10T01:55:05.553Z,0.90
2019-03-10T01:57:32.958Z,0.88
2019-03-10T02:00:00.374Z,1.37
2019-03-10T02:02:28.270Z,1.12
2019-03-10T02:04:55.664Z,0.80
2019-03-10T02:07:23.080Z,0.75
2019-03-10T02:09:50.482Z,1.20
2019-03-10T02:12:17.885Z,0.80
2019-03-10T02:14:45.327Z,1.12
2019-03-10T02:17:12.715Z,1.58
2019-03-10T02:19:40.189Z,1.00
2019-03-10T02:22:07.923Z,1.00
2019-03-10T02:24:35.519Z,1.10
2019-03-10T02:27:02.922Z,1.33
2019-03-10T02:29:30.361Z,1.02
2019-03-10T02:31:57.779Z,1.17
2019-03-10T02:34:25.163Z,1.02
2019-03-10T02:36:52.567Z,1.10
2019-03-10T02:39:19.985Z,0.90
2019-03-10T02:41:47.381Z,0.95
2019-03-10T02:44:14.816Z,0.90
2019-03-10T02:46:42.225Z,1.33
2019-03-10T02:49:09.633Z,0.95
2019-03-10T02:51:37.167Z,1.02
2019-03-10T02:54:04.618Z,1.08
2019-03-10T02:56:32.052Z,0.68
2019-03-10T02:58:59.394Z,0.57
2019-03-10T03:01:26.972Z,0.70
2019-03-10T03:03:54.459Z,0.50
2019-03-10T03:06:22.192Z,0.70
2019-03-10T03:08:49.622Z,0.98
2019-03-10T03:11:17.076Z,0.60
2019-03-10T03:13:44.475Z,0.80
2019-03-10T03:16:11.906Z,0.70
2019-03-10T03:18:39.364Z,0.50
2019-03-10T03:21:06.826Z,0.68
2019-03-10T03:23:34.282Z,0.50
2019-03-10T03:26:01.669Z,1.20
2019-03-10T03:28:29.063Z,0.70
2019-03-10T03:30:56.498Z,0.60
2019-03-10T03:33:23.912Z,0.60
2019-03-10T03:35:52.278Z,0.90
2019-03-10T03:38:23.112Z,0.60
2019-03-10T03:40:52.159Z,0.98
2019-03-10T03:43:19.740Z,0.60
2019-03-10T03:45:47.161Z,0.75
2019-03-10T03:48:14.952Z,0.70
2019-03-10T03:50:42.460Z,0.60
2019-03-10T03:53:09.857Z,0.80
2019-03-10T03:55:37.376Z,0.75
2019-03-10T03:58:04.776Z,0.60
2019-03-10T04:00:32.349Z,0.90
2019-03-10T04:02:59.947Z,0.77
2019-03-10T04:05:27.340Z,0.95
2019-03-10T04:07:54.759Z,0.70
2019-03-10T04:10:22.193Z,0.70
2019-03-10T04:12:49.610Z,0.70
2019-03-10T04:15:17.061Z,0.70
2019-03-10T04:17:44.509Z,0.60
2019-03-10T04:20:11.947Z,0.60
2019-03-10T04:22:39.404Z,0.75
2019-03-10T04:25:06.807Z,0.70
2019-03-10T04:27:34.232Z,0.90
2019-03-10T04:30:01.705Z,0.80
2019-03-10T04:32:29.047Z,0.75
2019-03-10T04:34:56.484Z,0.90
2019-03-10T04:37:23.859Z,0.98
2019-03-10T04:39:51.399Z,0.70
2019-03-10T04:42:18.880Z,0.70
2019-03-10T04:44:46.289Z,0.70
2019-03-10T04:47:13.758Z,0.65
2019-03-10T04:49:41.163Z,0.60
2019-03-10T04:52:08.591Z,0.60
2019-03-10T04:54:38.511Z,0.75
2019-03-10T04:57:06.062Z,0.60
2019-03-10T04:59:33.452Z,0.60
2019-03-10T05:02:00.880Z,0.55
2019-03-10T05:04:28.284Z,0.70
2019-03-10T05:06:55.666Z,0.82
2019-03-10T05:09:23.062Z,0.73
2019-03-10T05:11:50.466Z,0.60
2019-03-10T05:14:17.871Z,0.80
2019-03-10T05:16:45.271Z,0.65
2019-03-10T05:19:12.864Z,0.70
2019-03-10T05:21:40.254Z,1.23
2019-03-10T05:24:07.685Z,0.60
2019-03-10T05:26:35.095Z,0.50
2019-03-10T05:29:02.501Z,0.70
2019-03-10T05:31:29.947Z,0.70
2019-03-10T05:33:57.360Z,0.70
2019-03-10T05:36:24.757Z,0.60
2019-03-10T05:38:52.146Z,0.60
2019-03-10T05:41:19.567Z,0.60
2019-03-10T05:43:46.987Z,0.70
2019-03-10T05:46:14.385Z,0.50
2019-03-10T05:48:41.850Z,0.70
2019-03-10T05:51:09.240Z,0.80
2019-03-10T05:53:36.647Z,0.60
2019-03-10T05:56:04.049Z,0.70
2019-03-10T05:58:31.439Z,0.60
2019-03-10T06:00:58.857Z,0.70
2019-03-10T06:03:26.305Z,0.50
2019-03-10T06:05:53.727Z,0.73
2019-03-10T06:08:21.147Z,0.68
2019-03-10T06:10:48.629Z,0.80
2019-03-10T06:13:16.039Z,1.02
2019-03-10T06:15:43.448Z,0.90
2019-03-10T06:18:13.888Z,0.60
2019-03-10T06:20:38.365Z,0.70
2019-03-10T06:23:05.838Z,0.50
2019-03-10T06:25:35.046Z,0.60
2019-03-10T06:28:00.667Z,0.70
2019-03-10T06:30:28.080Z,0.60
2019-03-10T06:32:55.496Z,0.60
2019-03-10T06:35:22.953Z,0.70
2019-03-10T06:37:50.426Z,0.60
2019-03-10T06:40:17.861Z,0.65
2019-03-10T06:42:45.293Z,1.05
2019-03-10T06:45:13.352Z,0.70
2019-03-10T06:47:40.763Z,0.68
2019-03-10T06:50:08.169Z,0.70
2019-03-10T06:52:35.579Z,0.60
2019-03-10T06:55:02.987Z,0.60
2019-03-10T06:57:30.956Z,0.90
2019-03-10T06:59:58.341Z,0.95
2019-03-10T07:02:26.596Z,1.30
2019-03-10T07:04:54.032Z,0.60
2019-03-10T07:07:21.640Z,1.17
2019-03-10T07:09:49.051Z,0.88
2019-03-10T07:12:16.451Z,1.00
2019-03-10T07:14:43.859Z,1.23
2019-03-10T07:17:11.260Z,1.08
2019-03-10T07:19:38.694Z,0.60
2019-03-10T07:22:07.906Z,0.60
2019-03-10T07:24:35.317Z,1.08
2019-03-10T07:27:02.742Z,0.80
2019-03-10T07:29:30.159Z,0.88
2019-03-10T07:31:58.332Z,0.70
2019-03-10T07:34:31.309Z,1.17
2019-03-10T07:37:04.498Z,0.60
2019-03-10T07:39:32.071Z,0.70
2019-03-10T07:42:10.218Z,0.68
2019-03-10T07:44:37.965Z,0.80
2019-03-10T07:50:00.337Z,1.00
2019-03-10T07:52:33.281Z,0.70
2019-03-10T07:55:00.696Z,0.60
2019-03-10T07:57:35.659Z,0.70
2019-03-10T08:00:08.665Z,0.60
2019-03-10T08:02:48.922Z,0.75
2019-03-10T08:05:17.114Z,0.62
2019-03-10T08:07:46.165Z,0.70
2019-03-10T08:10:33.060Z,0.60
2019-03-10T08:13:12.314Z,0.57
2019-03-10T08:15:58.474Z,0.60
2019-03-10T08:18:31.440Z,0.60
2019-03-10T08:21:03.422Z,0.75
2019-03-10T08:26:27.518Z,1.00
2019-03-10T08:28:57.818Z,0.70
2019-03-10T08:31:27.002Z,0.80
2019-03-10T08:34:04.337Z,0.80
2019-03-10T08:36:34.130Z,0.70
2019-03-10T08:39:05.411Z,0.80
2019-03-10T08:41:34.167Z,0.70
2019-03-10T08:44:02.387Z,0.60
2019-03-10T08:46:40.530Z,0.70
2019-03-10T08:49:08.078Z,0.80
2019-03-10T08:51:39.854Z,0.80
2019-03-10T08:54:10.826Z,0.85
2019-03-10T08:56:50.945Z,0.70
2019-03-10T08:59:19.979Z,0.80
2019-03-10T09:01:53.024Z,0.77
2019-03-10T09:04:25.168Z,0.75
2019-03-10T09:07:08.428Z,0.60
2019-03-10T09:09:39.870Z,1.27
2019-03-10T09:12:12.930Z,0.80
2019-03-10T09:14:43.308Z,0.90
2019-03-10T09:17:16.540Z,0.90
2019-03-10T09:19:44.399Z,0.80
2019-03-10T09:22:17.328Z,0.90
2019-03-10T09:24:50.392Z,0.77
2019-03-10T09:27:28.948Z,0.62
2019-03-10T09:30:11.552Z,0.80
2019-03-10T09:32:39.944Z,0.60
2019-03-10T09:35:08.209Z,0.75
2019-03-10T09:40:32.650Z,1.20
2019-03-10T09:43:15.921Z,0.80
2019-03-10T09:45:45.913Z,1.00
2019-03-10T09:48:27.229Z,0.80
2019-03-10T09:50:57.082Z,0.95
2019-03-10T09:53:30.225Z,0.80
2019-03-10T09:56:02.553Z,0.85
2019-03-10T09:58:39.871Z,0.68
2019-03-10T10:01:21.157Z,1.35
2019-03-10T10:03:56.989Z,0.80
2019-03-10T10:06:25.174Z,1.12
2019-03-10T10:09:07.639Z,0.80
2019-03-10T10:11:37.099Z,0.80
2019-03-10T10:14:06.863Z,0.95
2019-03-10T10:16:50.101Z,1.35
2019-03-10T10:19:25.982Z,1.30
2019-03-10T10:21:53.470Z,0.90
2019-03-10T10:24:20.889Z,0.80
2019-03-10T10:26:48.295Z,0.90
2019-03-10T10:29:18.684Z,1.20
2019-03-10T10:31:50.702Z,0.95
2019-03-10T10:34:19.072Z,1.83
2019-03-10T10:36:47.415Z,1.20
2019-03-10T10:39:15.713Z,0.90
2019-03-10T10:41:48.779Z,1.08
2019-03-10T10:44:18.171Z,1.10
2019-03-10T10:46:48.062Z,1.10
2019-03-10T10:49:15.875Z,1.00
2019-03-10T10:51:55.073Z,0.95
2019-03-10T10:54:28.022Z,1.42
2019-03-10T10:56:58.978Z,0.70
2019-03-10T10:59:36.360Z,1.20
2019-03-10T11:02:17.582Z,0.80
2019-03-10T11:04:45.963Z,0.90
2019-03-10T11:07:15.202Z,1.52
2019-03-10T11:09:47.019Z,0.82
2019-03-10T11:15:10.321Z,2.00
2019-03-10T11:17:41.109Z,0.95
2019-03-10T11:20:11.225Z,0.90
2019-03-10T11:22:44.182Z,1.10
2019-03-10T11:25:12.993Z,0.90
2019-03-10T11:27:55.364Z,1.10
2019-03-10T11:30:38.565Z,1.00
2019-03-10T11:33:22.780Z,0.98
2019-03-10T11:35:53.600Z,1.20
2019-03-10T11:38:22.029Z,1.08
2019-03-10T11:40:52.266Z,0.90
2019-03-10T11:43:23.516Z,1.00
2019-03-10T11:45:54.525Z,0.90
2019-03-10T11:48:27.582Z,0.85
2019-03-10T11:50:55.026Z,1.00
2019-03-10T11:53:25.711Z,0.80
2019-03-10T12:08:52.127Z,1.10
2019-03-10T12:11:19.575Z,0.80
2019-03-10T12:13:46.972Z,1.15
2019-03-10T12:16:14.513Z,0.90
2019-03-10T12:18:41.925Z,0.82
2019-03-10T12:21:09.706Z,1.05
2019-03-10T12:23:37.131Z,1.12
2019-03-10T12:26:04.539Z,0.98
2019-03-10T12:28:31.956Z,1.35
2019-03-10T12:30:59.366Z,0.75
2019-03-10T12:33:26.763Z,1.25
2019-03-10T12:35:54.163Z,0.90
2019-03-10T12:38:21.573Z,0.70
2019-03-10T12:40:48.989Z,0.90
2019-03-10T12:43:16.474Z,0.88
2019-03-10T12:45:44.086Z,0.98
2019-03-10T12:48:11.580Z,0.80
2019-03-10T12:50:39.041Z,0.88
2019-03-10T12:53:06.464Z,0.90
2019-03-10T12:55:33.963Z,0.85
2019-03-10T12:58:01.356Z,1.25
2019-03-10T13:00:28.780Z,0.80
2019-03-10T13:02:56.168Z,0.90
2019-03-10T13:05:23.607Z,1.10
2019-03-10T13:07:51.064Z,0.90
2019-03-10T13:10:18.489Z,0.90
2019-03-10T13:12:46.046Z,1.20
2019-03-10T13:15:13.530Z,1.85
2019-03-10T13:17:40.938Z,1.10
2019-03-10T13:20:09.044Z,0.93
2019-03-10T13:22:36.460Z,1.23
2019-03-10T13:25:03.932Z,1.05
2019-03-10T13:32:25.288Z,2.72
2019-03-10T13:34:53.278Z,1.35
2019-03-10T13:37:20.669Z,1.37
2019-03-10T14:11:39.823Z,1.05
2019-03-10T14:31:16.986Z,1.00
2019-03-10T14:33:44.632Z,1.55
2019-03-10T14:36:12.056Z,1.15
2019-03-10T14:38:39.492Z,0.70
2019-03-10T14:41:07.042Z,0.90
2019-03-10T14:43:34.434Z,3.40
2019-03-10T14:46:02.355Z,0.80
2019-03-10T14:48:29.791Z,1.87
2019-03-10T14:53:24.151Z,0.90
2019-03-10T14:55:51.667Z,0.80
2019-03-10T14:58:19.076Z,1.02
2019-03-10T15:00:46.525Z,0.88
2019-03-10T15:03:14.015Z,1.02
2019-03-10T15:05:41.410Z,1.02
2019-03-10T15:08:08.834Z,1.77
2019-03-10T15:10:36.253Z,1.17
2019-03-10T15:13:03.647Z,0.97
2019-03-10T15:15:31.073Z,1.02
2019-03-10T15:17:58.459Z,1.10
2019-03-10T15:20:26.036Z,1.25
2019-03-10T15:22:53.600Z,1.15
2019-03-10T15:25:22.090Z,1.20
2019-03-10T15:27:49.559Z,1.50
2019-03-10T15:30:18.082Z,1.25
2019-03-10T15:32:45.816Z,1.40
2019-03-10T15:35:14.589Z,1.62
2019-03-10T15:37:42.056Z,1.27
2019-03-10T15:40:13.483Z,1.05
2019-03-10T15:42:40.973Z,1.20
2019-03-10T15:45:09.377Z,1.45
2019-03-10T15:47:36.770Z,1.12
2019-03-10T15:50:19.924Z,1.23
2019-03-10T15:52:47.510Z,1.70
2019-03-10T15:55:14.966Z,1.77
2019-03-10T15:57:50.225Z,2.67
2019-03-10T16:00:12.518Z,1.95
2019-03-10T16:02:39.941Z,2.17
2019-03-10T16:05:07.442Z,1.12
2019-03-10T16:07:34.840Z,1.60
2019-03-10T16:10:02.258Z,1.67
2019-03-10T16:12:29.652Z,1.30
2019-03-10T16:14:57.087Z,1.25
2019-03-10T16:17:24.537Z,2.50
2019-03-10T16:19:52.011Z,2.95
2019-03-10T16:22:19.390Z,2.70
2019-03-10T16:24:46.811Z,1.73
2019-03-10T16:27:14.211Z,1.75
2019-03-10T16:29:41.766Z,1.95
2019-03-10T16:32:09.170Z,1.67
2019-03-10T16:34:36.590Z,2.80
2019-03-10T16:37:04.096Z,1.77
2019-03-10T16:39:32.235Z,2.00
2019-03-10T16:41:59.636Z,1.58
2019-03-10T16:44:27.061Z,1.75
2019-03-10T16:46:54.463Z,1.62
2019-03-10T16:49:21.879Z,1.25
2019-03-10T16:51:49.279Z,1.85
2019-03-10T16:54:16.699Z,2.17
2019-03-10T16:56:44.157Z,1.50
2019-03-10T16:59:11.609Z,1.25
2019-03-10T17:01:39.096Z,2.40
2019-03-10T17:04:06.492Z,1.65
2019-03-10T17:06:33.907Z,2.35
2019-03-10T17:09:01.540Z,2.28
2019-03-10T17:11:29.106Z,3.35
2019-03-10T17:13:56.482Z,1.70
2019-03-10T17:16:23.920Z,1.83
2019-03-10T17:18:51.563Z,2.17
2019-03-10T17:21:18.959Z,1.65
2019-03-10T17:23:46.412Z,1.65
2019-03-10T17:26:13.869Z,1.92
2019-03-10T17:28:41.373Z,1.23
2019-03-10T17:31:08.956Z,1.77
2019-03-10T17:33:36.424Z,1.70
2019-03-10T17:36:03.891Z,1.60
2019-03-10T17:38:31.298Z,2.17
2019-03-10T17:40:58.736Z,1.92
2019-03-10T17:43:26.151Z,1.60
2019-03-10T17:45:53.599Z,1.30
2019-03-10T17:48:21.060Z,1.60
2019-03-10T17:50:48.468Z,2.00
2019-03-10T17:53:16.074Z,1.42
2019-03-10T17:55:43.532Z,2.55
2019-03-10T17:58:11.001Z,1.10
2019-03-10T18:00:38.442Z,1.70
2019-03-10T18:03:05.845Z,1.45
2019-03-10T18:05:33.600Z,2.33
2019-03-10T18:08:01.058Z,1.60
2019-03-10T18:10:28.532Z,2.30
2019-03-10T18:12:56.151Z,2.80
2019-03-10T18:15:23.574Z,1.95
2019-03-10T18:17:51.012Z,3.78
2019-03-10T18:20:19.515Z,1.75
2019-03-10T18:22:46.936Z,2.30
2019-03-10T18:25:14.323Z,1.55
2019-03-10T18:27:41.760Z,1.33
2019-03-10T18:30:18.667Z,1.87
2019-03-10T18:32:46.134Z,2.90
2019-03-10T18:35:13.529Z,2.20
2019-03-10T18:37:41.015Z,2.00
2019-03-10T18:40:10.948Z,2.65
2019-03-10T18:42:38.467Z,3.83
2019-03-10T18:45:05.884Z,3.50
2019-03-10T18:47:33.275Z,3.20
2019-03-10T18:50:00.694Z,4.53
2019-03-10T18:52:28.121Z,2.10
2019-03-10T18:54:55.549Z,1.20
2019-03-10T18:57:22.951Z,2.05
2019-03-10T18:59:50.339Z,1.55
2019-03-10T19:02:17.767Z,3.25
2019-03-10T19:04:45.208Z,1.37
2019-03-10T19:07:12.625Z,1.52
2019-03-10T19:09:40.032Z,1.73
2019-03-10T19:12:07.465Z,2.92
2019-03-10T19:14:34.886Z,2.10
2019-03-10T19:17:02.316Z,1.70
2019-03-10T19:19:31.916Z,1.85
2019-03-10T19:21:57.233Z,3.45
2019-03-10T19:24:24.627Z,2.75
2019-03-10T19:26:52.043Z,2.10
2019-03-10T19:29:19.474Z,2.00
2019-03-10T19:31:46.892Z,3.35
2019-03-10T19:34:14.386Z,1.25
2019-03-10T19:36:41.801Z,3.30
2019-03-10T19:39:09.202Z,3.25
2019-03-10T19:41:36.741Z,1.50
2019-03-10T19:44:04.187Z,1.45
2019-03-10T19:46:31.600Z,2.00
2019-03-10T19:48:58.991Z,2.58
2019-03-10T19:51:26.421Z,1.48
2019-03-10T19:53:53.854Z,1.85
2019-03-10T19:56:21.271Z,2.87
2019-03-10T19:58:48.678Z,2.30
2019-03-10T20:01:16.768Z,3.78
2019-03-10T20:03:44.175Z,3.85
2019-03-10T20:06:11.566Z,2.45
2019-03-10T20:08:38.966Z,3.53
2019-03-10T20:11:06.397Z,1.42
2019-03-10T20:13:33.848Z,4.65
2019-03-10T20:16:01.263Z,2.85
2019-03-10T20:18:28.707Z,3.05
2019-03-10T20:20:56.491Z,1.90
2019-03-10T20:23:23.915Z,4.60
2019-03-10T20:25:51.327Z,4.55
2019-03-10T20:28:18.738Z,1.73
2019-03-10T20:30:46.143Z,2.50
2019-03-10T20:33:13.905Z,2.65
2019-03-10T20:35:41.371Z,4.03
2019-03-10T20:38:08.766Z,2.65
2019-03-10T20:40:36.211Z,2.20
2019-03-10T20:43:03.599Z,2.72
2019-03-10T20:45:31.220Z,1.75
2019-03-10T20:47:58.650Z,3.83
2019-03-10T20:50:26.116Z,2.30
2019-03-10T20:52:53.517Z,2.15
2019-03-10T20:55:21.028Z,2.03
2019-03-10T20:57:48.485Z,2.70
2019-03-10T21:00:18.705Z,4.05
2019-03-10T21:02:46.094Z,2.65
2019-03-10T21:05:13.640Z,2.97
2019-03-10T21:07:41.054Z,2.50
2019-03-10T21:10:10.481Z,3.25
2019-03-10T21:12:41.842Z,3.37
2019-03-10T21:15:06.120Z,3.37
2019-03-10T21:17:33.509Z,1.83
2019-03-10T21:20:01.037Z,4.90
2019-03-10T21:22:28.569Z,1.80
2019-03-10T21:24:55.964Z,1.40
2019-03-10T21:27:23.399Z,1.60
2019-03-10T21:32:17.754Z,1.10
2019-03-10T21:34:45.593Z,1.25
2019-03-10T21:37:13.893Z,1.70
2019-03-10T21:39:41.302Z,1.48
2019-03-10T21:42:08.713Z,1.90
2019-03-10T21:44:36.129Z,1.00
2019-03-10T21:47:03.571Z,1.45
2019-03-10T21:49:31.025Z,1.40
2019-03-10T21:51:58.430Z,1.20
2019-03-10T21:54:25.850Z,1.05
2019-03-10T21:56:53.308Z,2.08
2019-03-10T21:59:20.702Z,2.15
2019-03-10T22:01:48.107Z,1.60
2019-03-10T22:04:15.593Z,1.27
2019-03-10T22:06:43.814Z,0.90
2019-03-10T22:09:11.241Z,2.00
2019-03-10T22:11:38.662Z,1.15
2019-03-10T22:14:06.111Z,1.60
2019-03-10T22:16:33.545Z,1.45
2019-03-10T22:19:00.934Z,1.77
2019-03-10T22:21:28.365Z,1.15
2019-03-10T22:23:59.571Z,2.35
2019-03-10T22:26:23.158Z,2.03
2019-03-10T22:28:50.639Z,1.87
2019-03-10T22:31:18.100Z,1.23
2019-03-10T22:33:45.582Z,1.98
2019-03-10T22:36:12.959Z,1.60
2019-03-10T22:38:40.480Z,2.28
2019-03-10T22:41:07.873Z,1.70
2019-03-10T22:43:35.283Z,1.45
2019-03-10T22:46:02.680Z,1.67
2019-03-10T22:48:30.073Z,2.92
2019-03-10T22:50:57.571Z,1.50
2019-03-10T22:53:25.019Z,0.93
2019-03-10T22:55:52.443Z,1.40
2019-03-10T22:58:19.846Z,0.73
2019-03-10T23:00:48.787Z,1.33
2019-03-10T23:03:16.176Z,0.70
2019-03-10T23:05:43.582Z,1.20
2019-03-10T23:08:10.982Z,0.80
2019-03-10T23:10:38.393Z,1.20
2019-03-10T23:13:05.833Z,1.00
2019-03-10T23:15:33.329Z,0.70
2019-03-10T23:18:00.726Z,0.80
2019-03-10T23:20:28.142Z,0.70
2019-03-10T23:22:55.540Z,0.98
2019-03-10T23:25:22.966Z,0.95
2019-03-10T23:27:50.374Z,1.20
2019-03-10T23:30:17.797Z,0.90
2019-03-10T23:32:45.576Z,0.98
2019-03-10T23:35:13.514Z,1.55
2019-03-10T23:37:40.961Z,1.10
2019-03-10T23:40:10.912Z,1.10
2019-03-10T23:42:38.361Z,1.20
2019-03-10T23:45:05.806Z,1.45
2019-03-10T23:47:35.086Z,1.45
2019-03-10T23:50:00.727Z,1.40
2019-03-10T23:52:28.119Z,1.33
2019-03-10T23:54:55.553Z,1.30
2019-03-10T23:57:22.954Z,1.25
2019-03-10T23:59:50.388Z,1.00
